sensor_id;sensor_type;location;lat;lon;timestamp;temperature;humidity
75113;DHT22;63692;47.338;8.520;2022-10-31T05:33:12;9.10;93.90
75113;DHT22;63692;47.338;8.520;2022-10-31T06:23:23;9.00;96.00
75113;DHT22;63692;47.338;8.520;2022-10-31T06:25:50;9.00;96.40
75113;DHT22;63692;47.338;8.520;2022-10-31T06:28:16;9.10;96.40
75113;DHT22;63692;47.338;8.520;2022-10-31T06:30:41;9.10;96.60
75113;DHT22;63692;47.338;8.520;2022-10-31T06:33:07;9.10;96.80
75113;DHT22;63692;47.338;8.520;2022-10-31T06:35:33;9.20;97.00
75113;DHT22;63692;47.338;8.520;2022-10-31T06:37:58;9.10;96.90
75113;DHT22;63692;47.338;8.520;2022-10-31T06:40:24;9.10;97.10
75113;DHT22;63692;47.338;8.520;2022-10-31T06:42:59;9.20;97.30
75113;DHT22;63692;47.338;8.520;2022-10-31T06:45:25;9.20;97.30
75113;DHT22;63692;47.338;8.520;2022-10-31T06:47:55;9.30;97.40
75113;DHT22;63692;47.338;8.520;2022-10-31T06:50:21;9.30;97.50
75113;DHT22;63692;47.338;8.520;2022-10-31T06:52:55;9.30;97.40
75113;DHT22;63692;47.338;8.520;2022-10-31T06:55:21;9.40;97.60
75113;DHT22;63692;47.338;8.520;2022-10-31T06:58:08;9.40;97.70
75113;DHT22;63692;47.338;8.520;2022-10-31T07:00:34;9.40;98.20
75113;DHT22;63692;47.338;8.520;2022-10-31T07:03:05;9.50;97.90
75113;DHT22;63692;47.338;8.520;2022-10-31T07:10:27;9.40;97.90
75113;DHT22;63692;47.338;8.520;2022-10-31T07:12:58;9.40;97.90
75113;DHT22;63692;47.338;8.520;2022-10-31T07:15:28;9.40;97.70
75113;DHT22;63692;47.338;8.520;2022-10-31T07:17:58;9.50;97.60
75113;DHT22;63692;47.338;8.520;2022-10-31T07:20:24;9.50;97.50
75113;DHT22;63692;47.338;8.520;2022-10-31T07:25:17;9.60;97.20
75113;DHT22;63692;47.338;8.520;2022-10-31T07:27:43;9.80;97.00
75113;DHT22;63692;47.338;8.520;2022-10-31T07:32:44;9.80;96.60
75113;DHT22;63692;47.338;8.520;2022-10-31T07:35:12;9.70;97.00
75113;DHT22;63692;47.338;8.520;2022-10-31T07:37:38;9.70;97.30
75113;DHT22;63692;47.338;8.520;2022-10-31T07:40:05;9.70;97.40
75113;DHT22;63692;47.338;8.520;2022-10-31T07:42:35;9.80;97.70
75113;DHT22;63692;47.338;8.520;2022-10-31T07:45:02;9.80;98.00
75113;DHT22;63692;47.338;8.520;2022-10-31T07:47:28;9.80;97.90
75113;DHT22;63692;47.338;8.520;2022-10-31T07:49:53;9.90;97.80
75113;DHT22;63692;47.338;8.520;2022-10-31T07:52:19;9.90;97.80
75113;DHT22;63692;47.338;8.520;2022-10-31T07:54:45;10.00;97.70
75113;DHT22;63692;47.338;8.520;2022-10-31T07:57:10;10.00;97.70
75113;DHT22;63692;47.338;8.520;2022-10-31T07:59:36;10.00;97.90
75113;DHT22;63692;47.338;8.520;2022-10-31T08:02:02;10.00;97.40
75113;DHT22;63692;47.338;8.520;2022-10-31T08:04:28;10.20;97.40
75113;DHT22;63692;47.338;8.520;2022-10-31T08:06:54;10.20;97.20
75113;DHT22;63692;47.338;8.520;2022-10-31T08:09:19;10.20;97.10
75113;DHT22;63692;47.338;8.520;2022-10-31T08:11:45;10.30;97.20
75113;DHT22;63692;47.338;8.520;2022-10-31T08:16:43;10.50;97.00
75113;DHT22;63692;47.338;8.520;2022-10-31T08:19:09;10.60;96.60
75113;DHT22;63692;47.338;8.520;2022-10-31T08:21:35;10.70;96.10
75113;DHT22;63692;47.338;8.520;2022-10-31T08:24:00;10.70;95.80
75113;DHT22;63692;47.338;8.520;2022-10-31T08:28:56;10.90;95.50
75113;DHT22;63692;47.338;8.520;2022-10-31T08:31:22;11.00;95.20
75113;DHT22;63692;47.338;8.520;2022-10-31T08:33:48;11.10;95.00
75113;DHT22;63692;47.338;8.520;2022-10-31T08:36:14;11.10;94.60
75113;DHT22;63692;47.338;8.520;2022-10-31T08:38:39;11.20;94.40
75113;DHT22;63692;47.338;8.520;2022-10-31T08:41:05;11.20;94.20
75113;DHT22;63692;47.338;8.520;2022-10-31T08:43:31;11.20;94.50
75113;DHT22;63692;47.338;8.520;2022-10-31T08:45:56;11.10;94.50
75113;DHT22;63692;47.338;8.520;2022-10-31T08:48:22;11.10;94.60
75113;DHT22;63692;47.338;8.520;2022-10-31T08:50:48;11.20;94.60
75113;DHT22;63692;47.338;8.520;2022-10-31T08:53:16;11.30;94.20
75113;DHT22;63692;47.338;8.520;2022-10-31T08:55:43;11.40;94.20
75113;DHT22;63692;47.338;8.520;2022-10-31T08:58:14;11.40;94.20
75113;DHT22;63692;47.338;8.520;2022-10-31T09:00:40;11.40;94.00
75113;DHT22;63692;47.338;8.520;2022-10-31T09:03:17;11.40;94.10
75113;DHT22;63692;47.338;8.520;2022-10-31T09:05:43;11.40;94.00
75113;DHT22;63692;47.338;8.520;2022-10-31T09:08:09;11.40;94.10
75113;DHT22;63692;47.338;8.520;2022-10-31T09:10:36;11.50;94.20
75113;DHT22;63692;47.338;8.520;2022-10-31T09:13:10;11.70;94.00
75113;DHT22;63692;47.338;8.520;2022-10-31T09:15:38;11.80;93.80
75113;DHT22;63692;47.338;8.520;2022-10-31T09:18:08;11.90;93.70
75113;DHT22;63692;47.338;8.520;2022-10-31T09:20:35;12.00;93.60
75113;DHT22;63692;47.338;8.520;2022-10-31T09:23:22;12.10;93.50
75113;DHT22;63692;47.338;8.520;2022-10-31T09:25:49;12.20;93.40
75113;DHT22;63692;47.338;8.520;2022-10-31T09:28:17;12.20;93.20
75113;DHT22;63692;47.338;8.520;2022-10-31T09:30:49;12.30;93.20
75113;DHT22;63692;47.338;8.520;2022-10-31T09:33:16;12.30;93.20
75113;DHT22;63692;47.338;8.520;2022-10-31T09:35:41;12.30;93.20
75113;DHT22;63692;47.338;8.520;2022-10-31T09:38:18;12.30;93.10
75113;DHT22;63692;47.338;8.520;2022-10-31T09:43:48;12.40;92.90
75113;DHT22;63692;47.338;8.520;2022-10-31T09:56:56;12.30;93.30
75113;DHT22;63692;47.338;8.520;2022-10-31T10:02:12;12.30;93.40
75113;DHT22;63692;47.338;8.520;2022-10-31T10:04:49;12.40;93.50
75113;DHT22;63692;47.338;8.520;2022-10-31T10:15:16;12.70;93.40
75113;DHT22;63692;47.338;8.520;2022-10-31T10:20:41;12.70;93.20
75113;DHT22;63692;47.338;8.520;2022-10-31T10:23:35;12.80;93.20
75113;DHT22;63692;47.338;8.520;2022-10-31T10:26:20;12.80;93.30
75113;DHT22;63692;47.338;8.520;2022-10-31T10:28:58;12.90;93.30
75113;DHT22;63692;47.338;8.520;2022-10-31T10:56:16;13.40;91.90
75113;DHT22;63692;47.338;8.520;2022-10-31T11:03:37;13.50;92.00
75113;DHT22;63692;47.338;8.520;2022-10-31T11:16:09;13.50;91.60
75113;DHT22;63692;47.338;8.520;2022-10-31T11:21:04;13.70;91.20
75113;DHT22;63692;47.338;8.520;2022-10-31T11:23:31;13.70;91.20
75113;DHT22;63692;47.338;8.520;2022-10-31T11:26:03;13.80;91.00
75113;DHT22;63692;47.338;8.520;2022-10-31T11:28:31;13.80;91.00
75113;DHT22;63692;47.338;8.520;2022-10-31T11:30:59;13.80;91.00
75113;DHT22;63692;47.338;8.520;2022-10-31T11:33:40;13.90;90.90
75113;DHT22;63692;47.338;8.520;2022-10-31T11:36:20;13.90;90.60
75113;DHT22;63692;47.338;8.520;2022-10-31T11:38:48;14.00;90.50
75113;DHT22;63692;47.338;8.520;2022-10-31T11:41:17;14.10;90.20
75113;DHT22;63692;47.338;8.520;2022-10-31T11:44:12;14.10;90.30
75113;DHT22;63692;47.338;8.520;2022-10-31T11:46:49;14.10;90.30
75113;DHT22;63692;47.338;8.520;2022-10-31T11:51:43;14.10;90.10
75113;DHT22;63692;47.338;8.520;2022-10-31T11:54:26;14.10;90.10
75113;DHT22;63692;47.338;8.520;2022-10-31T11:56:52;14.20;90.40
75113;DHT22;63692;47.338;8.520;2022-10-31T11:59:26;14.20;90.10
75113;DHT22;63692;47.338;8.520;2022-10-31T12:01:53;14.20;89.80
75113;DHT22;63692;47.338;8.520;2022-10-31T12:04:29;14.20;90.00
75113;DHT22;63692;47.338;8.520;2022-10-31T12:06:56;14.20;90.50
75113;DHT22;63692;47.338;8.520;2022-10-31T12:09:26;14.20;89.90
75113;DHT22;63692;47.338;8.520;2022-10-31T12:12:18;14.20;89.60
75113;DHT22;63692;47.338;8.520;2022-10-31T12:17:40;14.40;90.50
75113;DHT22;63692;47.338;8.520;2022-10-31T12:37:32;14.80;88.90
75113;DHT22;63692;47.338;8.520;2022-10-31T12:40:36;14.90;88.70
75113;DHT22;63692;47.338;8.520;2022-10-31T12:46:03;15.00;88.50
75113;DHT22;63692;47.338;8.520;2022-10-31T12:49:17;15.20;88.50
75113;DHT22;63692;47.338;8.520;2022-10-31T12:56:49;15.60;86.40
75113;DHT22;63692;47.338;8.520;2022-10-31T12:59:29;15.60;86.00
75113;DHT22;63692;47.338;8.520;2022-10-31T13:04:56;16.10;84.50
75113;DHT22;63692;47.338;8.520;2022-10-31T13:17:44;16.90;82.40
75113;DHT22;63692;47.338;8.520;2022-10-31T13:20:20;17.10;81.20
75113;DHT22;63692;47.338;8.520;2022-10-31T13:22:51;17.30;79.20
75113;DHT22;63692;47.338;8.520;2022-10-31T13:30:40;17.80;79.40
75113;DHT22;63692;47.338;8.520;2022-10-31T13:33:44;18.20;77.90
75113;DHT22;63692;47.338;8.520;2022-10-31T13:39:14;18.70;75.90
75113;DHT22;63692;47.338;8.520;2022-10-31T13:44:20;19.30;72.60
75113;DHT22;63692;47.338;8.520;2022-10-31T13:46:46;19.50;72.10
75113;DHT22;63692;47.338;8.520;2022-10-31T13:54:45;20.10;67.80
75113;DHT22;63692;47.338;8.520;2022-10-31T13:57:51;20.10;69.10
75113;DHT22;63692;47.338;8.520;2022-10-31T14:02:54;20.30;66.90
75113;DHT22;63692;47.338;8.520;2022-10-31T14:05:27;20.40;65.60
75113;DHT22;63692;47.338;8.520;2022-10-31T14:07:55;20.70;65.10
75113;DHT22;63692;47.338;8.520;2022-10-31T14:10:38;20.80;64.40
75113;DHT22;63692;47.338;8.520;2022-10-31T14:16:00;20.70;62.90
75113;DHT22;63692;47.338;8.520;2022-10-31T14:18:38;20.90;62.50
75113;DHT22;63692;47.338;8.520;2022-10-31T14:23:40;22.70;58.20
75113;DHT22;63692;47.338;8.520;2022-10-31T14:34:34;23.50;53.30
75113;DHT22;63692;47.338;8.520;2022-10-31T14:50:51;20.30;63.10
75113;DHT22;63692;47.338;8.520;2022-10-31T14:53:33;19.90;64.40
75113;DHT22;63692;47.338;8.520;2022-10-31T14:56:00;19.80;65.70
75113;DHT22;63692;47.338;8.520;2022-10-31T14:58:35;19.60;66.60
75113;DHT22;63692;47.338;8.520;2022-10-31T15:01:04;19.40;67.30
75113;DHT22;63692;47.338;8.520;2022-10-31T15:03:36;19.00;68.10
75113;DHT22;63692;47.338;8.520;2022-10-31T15:06:10;18.40;70.70
75113;DHT22;63692;47.338;8.520;2022-10-31T15:08:53;17.90;72.30
75113;DHT22;63692;47.338;8.520;2022-10-31T15:11:23;17.50;73.90
75113;DHT22;63692;47.338;8.520;2022-10-31T15:13:50;17.40;75.50
75113;DHT22;63692;47.338;8.520;2022-10-31T15:16:26;17.20;76.80
75113;DHT22;63692;47.338;8.520;2022-10-31T15:18:56;17.00;77.70
75113;DHT22;63692;47.338;8.520;2022-10-31T15:21:24;16.70;79.00
75113;DHT22;63692;47.338;8.520;2022-10-31T15:26:37;16.60;79.40
75113;DHT22;63692;47.338;8.520;2022-10-31T15:29:13;16.40;80.40
75113;DHT22;63692;47.338;8.520;2022-10-31T15:31:58;16.40;81.40
75113;DHT22;63692;47.338;8.520;2022-10-31T15:37:02;16.10;82.40
75113;DHT22;63692;47.338;8.520;2022-10-31T15:39:28;15.90;83.20
75113;DHT22;63692;47.338;8.520;2022-10-31T15:41:56;15.70;84.60
75113;DHT22;63692;47.338;8.520;2022-10-31T15:44:28;15.70;85.50
75113;DHT22;63692;47.338;8.520;2022-10-31T15:48:45;15.40;86.30
75113;DHT22;63692;47.338;8.520;2022-10-31T15:51:12;15.40;87.20
75113;DHT22;63692;47.338;8.520;2022-10-31T15:53:45;15.30;88.20
75113;DHT22;63692;47.338;8.520;2022-10-31T15:56:23;15.30;87.70
75113;DHT22;63692;47.338;8.520;2022-10-31T15:58:51;15.20;88.20
75113;DHT22;63692;47.338;8.520;2022-10-31T16:01:29;15.10;88.70
75113;DHT22;63692;47.338;8.520;2022-10-31T16:06:37;14.70;89.90
75113;DHT22;63692;47.338;8.520;2022-10-31T16:09:03;14.60;89.70
75113;DHT22;63692;47.338;8.520;2022-10-31T16:11:43;14.60;90.00
75113;DHT22;63692;47.338;8.520;2022-10-31T16:16:42;14.60;90.00
75113;DHT22;63692;47.338;8.520;2022-10-31T16:19:25;14.50;90.10
75113;DHT22;63692;47.338;8.520;2022-10-31T16:22:11;14.40;90.10
75113;DHT22;63692;47.338;8.520;2022-10-31T16:24:51;14.40;90.10
75113;DHT22;63692;47.338;8.520;2022-10-31T16:27:23;14.40;90.00
75113;DHT22;63692;47.338;8.520;2022-10-31T16:29:52;14.40;90.00
75113;DHT22;63692;47.338;8.520;2022-10-31T16:35:17;14.10;90.30
75113;DHT22;63692;47.338;8.520;2022-10-31T16:37:43;14.00;90.50
75113;DHT22;63692;47.338;8.520;2022-10-31T16:40:11;14.00;90.70
75113;DHT22;63692;47.338;8.520;2022-10-31T16:42:39;13.90;90.80
75113;DHT22;63692;47.338;8.520;2022-10-31T16:45:06;14.00;90.80
75113;DHT22;63692;47.338;8.520;2022-10-31T16:47:32;14.00;90.60
75113;DHT22;63692;47.338;8.520;2022-10-31T16:52:33;13.90;90.60
75113;DHT22;63692;47.338;8.520;2022-10-31T16:55:00;13.90;90.70
75113;DHT22;63692;47.338;8.520;2022-10-31T16:57:29;13.70;90.80
75113;DHT22;63692;47.338;8.520;2022-10-31T16:59:56;13.50;90.90
75113;DHT22;63692;47.338;8.520;2022-10-31T17:02:22;13.40;91.20
75113;DHT22;63692;47.338;8.520;2022-10-31T17:04:48;13.40;91.30
75113;DHT22;63692;47.338;8.520;2022-10-31T17:07:14;13.30;91.20
75113;DHT22;63692;47.338;8.520;2022-10-31T17:09:40;13.30;91.30
75113;DHT22;63692;47.338;8.520;2022-10-31T17:12:09;13.30;91.20
75113;DHT22;63692;47.338;8.520;2022-10-31T17:14:36;13.30;91.40
75113;DHT22;63692;47.338;8.520;2022-10-31T17:17:02;13.20;91.40
75113;DHT22;63692;47.338;8.520;2022-10-31T17:19:27;13.10;91.60
75113;DHT22;63692;47.338;8.520;2022-10-31T17:21:53;13.10;91.80
75113;DHT22;63692;47.338;8.520;2022-10-31T17:24:19;13.00;91.80
75113;DHT22;63692;47.338;8.520;2022-10-31T17:26:45;13.10;91.70
75113;DHT22;63692;47.338;8.520;2022-10-31T17:29:11;13.00;91.80
75113;DHT22;63692;47.338;8.520;2022-10-31T17:31:37;12.90;92.00
75113;DHT22;63692;47.338;8.520;2022-10-31T17:34:04;13.00;92.00
75113;DHT22;63692;47.338;8.520;2022-10-31T17:36:31;13.00;91.90
75113;DHT22;63692;47.338;8.520;2022-10-31T17:38:58;13.00;92.00
75113;DHT22;63692;47.338;8.520;2022-10-31T17:41:24;13.00;92.10
75113;DHT22;63692;47.338;8.520;2022-10-31T17:43:57;12.90;92.40
75113;DHT22;63692;47.338;8.520;2022-10-31T17:46:23;12.80;92.20
75113;DHT22;63692;47.338;8.520;2022-10-31T17:48:48;12.80;92.20
75113;DHT22;63692;47.338;8.520;2022-10-31T17:51:14;12.90;92.40
75113;DHT22;63692;47.338;8.520;2022-10-31T17:53:40;12.90;92.10
75113;DHT22;63692;47.338;8.520;2022-10-31T17:56:07;12.80;92.20
75113;DHT22;63692;47.338;8.520;2022-10-31T17:58:35;12.90;92.60
75113;DHT22;63692;47.338;8.520;2022-10-31T18:01:06;12.80;92.50
75113;DHT22;63692;47.338;8.520;2022-10-31T18:03:32;12.80;92.40
75113;DHT22;63692;47.338;8.520;2022-10-31T18:05:58;12.90;92.50
75113;DHT22;63692;47.338;8.520;2022-10-31T18:08:30;13.00;92.60
75113;DHT22;63692;47.338;8.520;2022-10-31T18:10:56;13.00;92.30
75113;DHT22;63692;47.338;8.520;2022-10-31T18:13:26;13.00;92.20
75113;DHT22;63692;47.338;8.520;2022-10-31T18:15:52;13.10;92.00
75113;DHT22;63692;47.338;8.520;2022-10-31T18:18:18;12.90;91.90
75113;DHT22;63692;47.338;8.520;2022-10-31T18:20:43;12.90;92.40
75113;DHT22;63692;47.338;8.520;2022-10-31T18:23:10;13.00;92.40
75113;DHT22;63692;47.338;8.520;2022-10-31T18:25:35;13.00;92.10
75113;DHT22;63692;47.338;8.520;2022-10-31T18:28:04;12.90;92.10
75113;DHT22;63692;47.338;8.520;2022-10-31T18:30:30;12.70;92.40
75113;DHT22;63692;47.338;8.520;2022-10-31T18:32:56;12.70;92.60
75113;DHT22;63692;47.338;8.520;2022-10-31T18:35:22;12.60;92.70
75113;DHT22;63692;47.338;8.520;2022-10-31T18:37:48;12.60;92.90
75113;DHT22;63692;47.338;8.520;2022-10-31T18:40:13;12.70;93.00
75113;DHT22;63692;47.338;8.520;2022-10-31T18:42:39;12.80;92.90
75113;DHT22;63692;47.338;8.520;2022-10-31T18:45:05;12.70;92.80
75113;DHT22;63692;47.338;8.520;2022-10-31T18:47:31;12.70;92.70
75113;DHT22;63692;47.338;8.520;2022-10-31T18:49:56;12.70;92.70
75113;DHT22;63692;47.338;8.520;2022-10-31T18:52:22;12.60;92.90
75113;DHT22;63692;47.338;8.520;2022-10-31T18:54:48;12.60;93.00
75113;DHT22;63692;47.338;8.520;2022-10-31T18:57:13;12.60;93.10
75113;DHT22;63692;47.338;8.520;2022-10-31T18:59:39;12.60;92.80
75113;DHT22;63692;47.338;8.520;2022-10-31T19:02:05;12.60;92.80
75113;DHT22;63692;47.338;8.520;2022-10-31T19:04:31;12.60;92.80
75113;DHT22;63692;47.338;8.520;2022-10-31T19:09:24;12.60;92.90
75113;DHT22;63692;47.338;8.520;2022-10-31T19:26:34;12.50;92.80
75113;DHT22;63692;47.338;8.520;2022-10-31T19:31:27;12.50;92.80
75113;DHT22;63692;47.338;8.520;2022-10-31T19:33:53;12.50;92.80
75113;DHT22;63692;47.338;8.520;2022-10-31T19:36:19;12.50;92.90
75113;DHT22;63692;47.338;8.520;2022-10-31T19:38:47;12.40;92.90
75113;DHT22;63692;47.338;8.520;2022-10-31T19:41:22;12.40;92.90
75113;DHT22;63692;47.338;8.520;2022-10-31T19:46:22;12.30;93.00
75113;DHT22;63692;47.338;8.520;2022-10-31T19:48:48;12.40;92.90
75113;DHT22;63692;47.338;8.520;2022-10-31T19:51:18;12.30;92.90
75113;DHT22;63692;47.338;8.520;2022-10-31T19:58:47;12.30;92.70
75113;DHT22;63692;47.338;8.520;2022-10-31T20:01:42;12.20;92.90
75113;DHT22;63692;47.338;8.520;2022-10-31T20:04:14;12.10;93.00
75113;DHT22;63692;47.338;8.520;2022-10-31T20:06:40;12.10;93.00
75113;DHT22;63692;47.338;8.520;2022-10-31T20:09:16;12.20;93.00
75113;DHT22;63692;47.338;8.520;2022-10-31T20:11:43;12.20;92.90
75113;DHT22;63692;47.338;8.520;2022-10-31T20:14:11;12.30;92.80
75113;DHT22;63692;47.338;8.520;2022-10-31T20:16:37;12.20;92.60
75113;DHT22;63692;47.338;8.520;2022-10-31T20:19:03;12.30;92.60
75113;DHT22;63692;47.338;8.520;2022-10-31T20:24:31;12.30;92.50
75113;DHT22;63692;47.338;8.520;2022-10-31T20:26:57;12.30;92.50
75113;DHT22;63692;47.338;8.520;2022-10-31T20:37:08;12.20;92.60
